CheckWX is a tool to help pilots better visualize weather data.  It is not intended as a substitute for an official pre-flight weather briefing.

06:47:12 UTC

KALI METAR
Alice International Airport
Alice, Texas, USA
Current

54 mins ago

KALI 210553Z AUTO 15014KT 8SM OVC024 27/23 A2960 RMK AO2 PK WND 14027/0529 SLP019 T02720233 10300 20272 403440267 58010
Observed
May-21 @ 05:53 UTC
Wind
  • 150° at 14 KTS
Visibility
8 SM
Flight Rules
MVFR
Cloud Levels
  • Overcast at 2,400' AGL
Temperature
27°C / 81°F
Dewpoint
23°C / 73°F
Heat Index
30°C / 86°F
Humidity
79%
Altimeter
29.6" Hg
Pressure
1002.42 hPa
Previous

2 hours ago

KALI 210453Z AUTO 16011G18KT 8SM OVC024 27/24 A2963 RMK AO2 SLP030 T02720239
Observed
May-21 @ 04:53 UTC
Wind
  • 160° at 11 KTS
  • Gusting to 18 KTS
Visibility
8 SM
Flight Rules
MVFR
Cloud Levels
  • Overcast at 2,400' AGL
Temperature
27°C / 81°F
Dewpoint
24°C / 75°F
Heat Index
31°C / 87°F
Humidity
84%
Altimeter
29.63" Hg
Pressure
1003.42 hPa
Previous

3 hours ago

KALI 210353Z AUTO 16015KT 9SM OVC022 28/24 A2963 RMK AO2 SLP031 T02780239
Observed
May-21 @ 03:53 UTC
Wind
  • 160° at 15 KTS
Visibility
9 SM
Flight Rules
MVFR
Cloud Levels
  • Overcast at 2,200' AGL
Temperature
28°C / 82°F
Dewpoint
24°C / 75°F
Heat Index
32°C / 89°F
Humidity
79%
Altimeter
29.63" Hg
Pressure
1003.42 hPa